Time;durP1;ratioP1;P1;durP2;ratioP2;P2;SDS_P1;SDS_P2;PMS_P1;PMS_P2;Temp;Humidity;BMP_temperature;BMP_pressure;BME280_temperature;BME280_humidity;BME280_pressure;Samples;Min_cycle;Max_cycle;Signal;HPM_P1;HPM_P2
2022/07/31 00:01:23;;;;;;;3.85;3.50;;;;;;;12.82;100.00;100984.78;4958696;28;20463;-76
2022/07/31 00:03:50;;;;;;;4.10;3.70;;;;;;;12.80;100.00;100982.19;4955181;28;20039;-77
2022/07/31 00:06:18;;;;;;;4.15;3.47;;;;;;;12.74;100.00;100989.41;4949219;28;20039;-76
2022/07/31 00:08:44;;;;;;;3.20;2.90;;;;;;;12.64;100.00;100989.63;4937720;28;20031;-78
2022/07/31 00:11:11;;;;;;;3.05;2.72;;;;;;;12.62;100.00;100985.28;4953360;28;20042;-77
2022/07/31 00:13:40;;;;;;;5.65;3.85;;;;;;;12.59;100.00;100987.97;4928107;28;21465;-76
2022/07/31 00:16:23;;;;;;;5.38;3.40;;;;;;;12.59;100.00;100982.69;4958410;28;20049;-77
2022/07/31 00:18:50;;;;;;;3.80;3.35;;;;;;;12.57;100.00;100984.50;4950657;28;20039;-78
2022/07/31 00:21:17;;;;;;;4.50;3.38;;;;;;;12.47;100.00;100983.84;4964849;28;20039;-78
2022/07/31 00:23:44;;;;;;;5.00;3.72;;;;;;;12.39;100.00;100984.03;4939169;28;20096;-77
2022/07/31 00:26:11;;;;;;;4.80;4.00;;;;;;;12.33;100.00;100976.19;4955939;28;20045;-77
2022/07/31 00:28:37;;;;;;;5.15;3.58;;;;;;;12.31;100.00;100979.81;4956848;28;20558;-75
2022/07/31 00:31:04;;;;;;;4.82;3.92;;;;;;;12.24;100.00;100981.72;4967503;28;20106;-77
2022/07/31 00:33:30;;;;;;;4.13;3.72;;;;;;;12.18;100.00;100976.53;4976482;28;20578;-76
2022/07/31 00:35:57;;;;;;;4.90;3.42;;;;;;;12.10;100.00;100979.34;4950152;28;20110;-77
2022/07/31 00:38:24;;;;;;;4.28;3.50;;;;;;;12.04;100.00;100970.69;4968201;28;20039;-77
2022/07/31 00:40:52;;;;;;;5.68;3.33;;;;;;;12.00;100.00;100971.66;4929632;28;20050;-77
2022/07/31 00:43:19;;;;;;;3.50;3.15;;;;;;;11.97;100.00;100972.59;4935434;28;20046;-77
2022/07/31 00:45:46;;;;;;;4.07;3.67;;;;;;;11.95;100.00;100965.59;4950910;28;20035;-75
2022/07/31 00:48:24;;;;;;;4.20;3.67;;;;;;;11.90;100.00;100970.97;4954667;28;20055;-75
2022/07/31 00:50:50;;;;;;;4.85;4.07;;;;;;;11.86;100.00;100964.00;4950039;28;20034;-77
2022/07/31 00:53:17;;;;;;;5.65;4.20;;;;;;;11.86;100.00;100955.19;4936412;28;20058;-77
2022/07/31 00:55:46;;;;;;;5.65;3.67;;;;;;;11.83;100.00;100962.28;4964473;28;20059;-77
2022/07/31 00:58:18;;;;;;;4.90;4.07;;;;;;;11.78;100.00;100957.97;4953273;28;20093;-77
2022/07/31 01:00:46;;;;;;;3.88;3.22;;;;;;;11.72;100.00;100958.09;4948917;28;20164;-77
2022/07/31 01:03:13;;;;;;;5.35;3.90;;;;;;;11.67;100.00;100957.28;4936831;28;20041;-77
2022/07/31 01:05:40;;;;;;;4.43;3.50;;;;;;;11.64;100.00;100960.88;4965509;28;20533;-77
2022/07/31 01:08:07;;;;;;;4.75;4.22;;;;;;;11.62;100.00;100944.19;4950621;28;20031;-75
2022/07/31 01:10:45;;;;;;;4.60;3.90;;;;;;;11.65;100.00;100949.41;4948214;28;20932;-77
2022/07/31 01:13:19;;;;;;;6.20;4.05;;;;;;;11.65;100.00;100953.81;4927206;28;20049;-77
2022/07/31 01:15:46;;;;;;;4.15;3.70;;;;;;;11.59;100.00;100954.81;4962522;28;20058;-77
2022/07/31 01:18:15;;;;;;;4.50;3.95;;;;;;;11.53;100.00;100958.47;4947659;28;20043;-78
2022/07/31 01:20:43;;;;;;;4.38;3.97;;;;;;;11.46;100.00;100955.97;4950596;28;20065;-77
2022/07/31 01:23:41;;;;;;;3.92;3.50;;;;;;;11.39;100.00;100955.19;4969083;28;20045;-78
2022/07/31 01:26:36;;;;;;;4.50;3.80;;;;;;;11.29;100.00;100953.63;4921437;28;20042;-76
2022/07/31 01:29:16;;;;;;;4.30;3.75;;;;;;;11.26;100.00;100959.84;4945774;28;20031;-76
2022/07/31 01:32:00;;;;;;;5.18;3.72;;;;;;;11.26;100.00;100953.69;4969106;28;20508;-77
2022/07/31 01:34:47;;;;;;;4.32;3.47;;;;;;;11.24;100.00;100963.41;4953972;28;20058;-76
2022/07/31 01:37:21;;;;;;;3.97;3.55;;;;;;;11.19;100.00;100965.28;4965519;28;22183;-77
2022/07/31 01:39:53;;;;;;;4.30;3.90;;;;;;;11.14;100.00;100960.06;4953611;28;20130;-76
2022/07/31 01:42:21;;;;;;;4.70;3.92;;;;;;;11.11;100.00;100965.44;4950968;28;20035;-77
2022/07/31 01:44:52;;;;;;;5.40;4.20;;;;;;;11.14;100.00;100968.00;4933993;28;20054;-77
2022/07/31 01:47:20;;;;;;;4.03;3.60;;;;;;;11.12;100.00;100961.88;4934229;28;20047;-77
2022/07/31 01:49:52;;;;;;;5.63;4.00;;;;;;;11.13;100.00;100960.97;4951762;28;20046;-77
2022/07/31 01:52:21;;;;;;;5.80;4.75;;;;;;;11.12;100.00;100958.38;4948829;28;20448;-77
2022/07/31 01:54:48;;;;;;;5.35;4.13;;;;;;;11.08;100.00;100959.31;4948054;28;20452;-76
2022/07/31 01:57:15;;;;;;;4.72;4.32;;;;;;;11.05;100.00;100960.25;4967712;28;20047;-77
2022/07/31 01:59:45;;;;;;;4.70;4.20;;;;;;;11.01;100.00;100961.19;4933952;28;20038;-76
2022/07/31 02:02:13;;;;;;;4.90;4.10;;;;;;;10.97;100.00;100956.84;4950391;28;20062;-77
2022/07/31 02:04:42;;;;;;;5.07;4.53;;;;;;;10.91;100.00;100949.03;4950168;28;20065;-77
2022/07/31 02:07:09;;;;;;;5.00;3.90;;;;;;;10.86;100.00;100958.81;4969373;28;20656;-76
2022/07/31 02:09:38;;;;;;;4.30;3.90;;;;;;;10.81;100.00;100952.72;4937514;28;20031;-76
2022/07/31 02:12:25;;;;;;;5.28;4.78;;;;;;;10.84;100.00;100948.25;4951595;28;20058;-78
2022/07/31 02:15:01;;;;;;;7.25;4.07;;;;;;;10.81;100.00;100952.72;4943232;28;20051;-76
2022/07/31 02:17:28;;;;;;;6.15;4.25;;;;;;;10.78;100.00;100947.50;4969993;28;20045;-75
2022/07/31 02:19:56;;;;;;;6.72;4.28;;;;;;;10.71;100.00;100937.03;4949169;28;20050;-76
2022/07/31 02:22:26;;;;;;;5.28;4.78;;;;;;;10.74;100.00;100937.88;4949501;28;20070;-76
2022/07/31 02:24:53;;;;;;;6.55;4.53;;;;;;;10.68;100.00;100939.72;4950048;28;20039;-79
2022/07/31 02:27:21;;;;;;;5.80;4.28;;;;;;;10.62;100.00;100945.09;4960969;28;20046;-77
2022/07/31 02:30:08;;;;;;;5.05;4.00;;;;;;;10.57;100.00;100944.28;4952709;28;20125;-77
2022/07/31 02:32:35;;;;;;;5.60;5.00;;;;;;;10.57;100.00;100949.56;4966237;28;20489;-77
2022/07/31 02:35:03;;;;;;;5.63;4.22;;;;;;;10.54;100.00;100941.72;4917872;28;20093;-77
2022/07/31 02:37:30;;;;;;;5.93;4.47;;;;;;;10.51;100.00;100941.78;4937355;28;20548;-77
2022/07/31 02:39:57;;;;;;;4.50;4.10;;;;;;;10.51;100.00;100940.88;4929745;28;20042;-75
2022/07/31 02:42:25;;;;;;;5.32;4.57;;;;;;;10.51;100.00;100947.06;4946903;28;20138;-77
2022/07/31 02:44:52;;;;;;;5.30;4.80;;;;;;;10.53;100.00;100944.38;4953600;28;20451;-75
2022/07/31 02:47:19;;;;;;;4.75;4.30;;;;;;;10.48;100.00;100947.09;4949618;28;20039;-77
2022/07/31 02:49:45;;;;;;;5.40;4.82;;;;;;;10.41;100.00;100959.50;4930032;28;20500;-77
2022/07/31 02:52:12;;;;;;;5.07;4.57;;;;;;;10.36;100.00;100947.28;4955597;28;20459;-77
2022/07/31 02:54:39;;;;;;;5.05;4.30;;;;;;;10.35;100.00;100956.09;4949542;28;20719;-76
2022/07/31 02:57:06;;;;;;;5.05;4.25;;;;;;;10.35;100.00;100950.81;4963367;28;20039;-77
2022/07/31 02:59:36;;;;;;;5.80;4.38;;;;;;;10.31;100.00;100944.69;4968962;28;20043;-77
2022/07/31 03:02:04;;;;;;;5.45;4.32;;;;;;;10.28;100.00;100946.53;4948343;28;20045;-77
2022/07/31 03:04:32;;;;;;;5.03;4.15;;;;;;;10.25;100.00;100950.06;4937184;28;20112;-77
2022/07/31 03:06:59;;;;;;;5.45;4.68;;;;;;;10.26;100.00;100941.28;4950741;28;20061;-77
2022/07/31 03:09:29;;;;;;;4.82;4.32;;;;;;;10.23;100.00;100943.94;4967917;28;20079;-76
2022/07/31 03:11:59;;;;;;;6.53;5.85;;;;;;;10.23;100.00;100938.66;4950876;28;20506;-75
2022/07/31 03:14:31;;;;;;;5.40;4.82;;;;;;;10.27;100.00;100934.22;4966947;28;20126;-78
2022/07/31 03:16:58;;;;;;;5.18;4.68;;;;;;;10.20;100.00;100927.25;4942449;28;20047;-76
2022/07/31 03:19:27;;;;;;;6.63;4.88;;;;;;;10.13;100.00;100931.75;4961317;28;20132;-77
2022/07/31 03:21:55;;;;;;;5.80;4.53;;;;;;;10.09;100.00;100925.63;4951082;28;20066;-76
2022/07/31 03:24:21;;;;;;;4.95;4.45;;;;;;;10.08;100.00;100925.63;4950517;28;20047;-77
2022/07/31 03:26:48;;;;;;;5.20;4.60;;;;;;;10.04;100.00;100922.19;4954123;28;20038;-76
2022/07/31 03:29:15;;;;;;;6.45;4.80;;;;;;;10.05;100.00;100925.69;4947305;28;20093;-77
2022/07/31 03:32:01;;;;;;;6.20;4.57;;;;;;;10.08;100.00;100923.00;4959854;28;20070;-77
2022/07/31 03:34:28;;;;;;;6.97;5.00;;;;;;;10.10;100.00;100926.50;4962241;28;20077;-75
2022/07/31 03:36:55;;;;;;;5.18;4.68;;;;;;;10.12;100.00;100920.31;4946551;28;20043;-77
2022/07/31 03:39:22;;;;;;;4.90;4.40;;;;;;;10.15;100.00;100922.03;4954539;28;20043;-77
2022/07/31 03:41:49;;;;;;;4.78;4.28;;;;;;;10.09;100.00;100917.72;4947453;28;20038;-77
2022/07/31 03:44:16;;;;;;;5.78;5.25;;;;;;;10.03;100.00;100922.22;4939830;28;20034;-77
2022/07/31 03:46:42;;;;;;;5.03;4.05;;;;;;;10.01;100.00;100916.97;4974313;28;20464;-77
2022/07/31 03:49:09;;;;;;;5.32;4.50;;;;;;;10.00;100.00;100911.66;4958593;28;20038;-77
2022/07/31 03:51:36;;;;;;;4.93;4.43;;;;;;;9.98;100.00;100914.34;4920596;28;20050;-78
2022/07/31 03:54:02;;;;;;;5.15;4.47;;;;;;;9.98;100.00;100916.97;4968567;28;20420;-77
2022/07/31 03:56:30;;;;;;;5.15;4.65;;;;;;;10.03;100.00;100915.16;4934150;28;20070;-76
2022/07/31 03:58:57;;;;;;;5.93;4.82;;;;;;;10.09;100.00;100916.84;4955735;28;20045;-77
2022/07/31 04:01:24;;;;;;;6.90;4.78;;;;;;;10.10;100.00;100910.66;4934202;28;20134;-78
2022/07/31 04:04:12;;;;;;;5.35;4.85;;;;;;;10.12;100.00;100916.78;4968458;28;20240;-78
2022/07/31 04:06:41;;;;;;;5.35;4.70;;;;;;;10.12;100.00;100909.75;4930581;28;20052;-76
2022/07/31 04:09:08;;;;;;;4.85;4.25;;;;;;;10.15;100.00;100914.09;4955616;28;20436;-78
2022/07/31 04:11:45;;;;;;;5.78;4.45;;;;;;;10.18;100.00;100908.78;4962836;28;20510;-77
2022/07/31 04:14:11;;;;;;;5.45;4.78;;;;;;;10.22;100.00;100910.50;4947101;28;20117;-76
2022/07/31 04:16:38;;;;;;;4.95;4.40;;;;;;;10.25;100.00;100909.59;4918134;28;20051;-76
2022/07/31 04:19:05;;;;;;;5.45;4.95;;;;;;;10.31;100.00;100901.56;4955179;28;20500;-77
2022/07/31 04:21:31;;;;;;;5.47;4.80;;;;;;;10.32;100.00;100906.81;4966488;28;20046;-78
2022/07/31 04:23:58;;;;;;;5.03;4.47;;;;;;;10.32;100.00;100911.25;4939734;28;20039;-76
2022/07/31 04:26:25;;;;;;;4.68;4.28;;;;;;;10.30;100.00;100918.31;4954039;28;20043;-77
2022/07/31 04:28:52;;;;;;;5.93;4.60;;;;;;;10.30;100.00;100921.84;4934876;28;20039;-78
2022/07/31 04:31:18;;;;;;;5.18;4.68;;;;;;;10.41;100.00;100914.59;4967260;28;20039;-76
2022/07/31 04:33:45;;;;;;;4.97;4.10;;;;;;;10.58;100.00;100911.69;4956911;28;20042;-78
2022/07/31 04:36:16;;;;;;;5.28;4.60;;;;;;;10.68;100.00;100912.44;4950069;28;20039;-76
2022/07/31 04:38:57;;;;;;;5.70;4.97;;;;;;;10.74;100.00;100908.78;4953386;28;20039;-78
2022/07/31 04:41:24;;;;;;;5.07;4.47;;;;;;;10.75;100.00;100914.06;4953471;28;20054;-77
2022/07/31 04:43:51;;;;;;;5.32;3.95;;;;;;;10.76;100.00;100907.00;4942947;28;20042;-77
2022/07/31 04:46:18;;;;;;;5.68;4.22;;;;;;;10.77;100.00;100914.06;4941010;28;20035;-78
2022/07/31 04:48:44;;;;;;;5.10;4.60;;;;;;;10.76;100.00;100915.78;4970081;28;20496;-76
2022/07/31 04:51:18;;;;;;;5.47;4.50;;;;;;;10.77;100.00;100911.41;4969603;28;20031;-77
2022/07/31 04:53:45;;;;;;;5.68;4.93;;;;;;;10.83;100.00;100913.91;4911419;28;20047;-77
2022/07/31 04:58:59;;;;;;;6.38;5.07;;;;;;;10.95;100.00;100903.16;4939396;28;20066;-77
2022/07/31 05:01:26;;;;;;;5.55;4.72;;;;;;;11.02;100.00;100901.28;4959629;28;20045;-78
2022/07/31 05:03:52;;;;;;;4.65;4.25;;;;;;;11.08;100.00;100907.28;4971386;28;20046;-77
2022/07/31 05:06:19;;;;;;;5.32;4.35;;;;;;;11.13;100.00;100905.44;4957118;28;20054;-77
2022/07/31 05:08:46;;;;;;;4.38;3.97;;;;;;;11.29;100.00;100906.03;4955332;28;20575;-76
2022/07/31 05:11:22;;;;;;;5.07;4.00;;;;;;;11.48;100.00;100909.19;4960228;28;20045;-77
2022/07/31 05:13:54;;;;;;;5.03;4.30;;;;;;;11.56;100.00;100912.53;4979180;28;20046;-77
2022/07/31 05:16:21;;;;;;;5.40;4.43;;;;;;;11.59;100.00;100915.09;4966456;28;20679;-77
2022/07/31 05:18:50;;;;;;;4.57;4.07;;;;;;;11.64;100.00;100909.72;4949373;28;20068;-77
2022/07/31 05:21:17;;;;;;;4.43;4.03;;;;;;;11.68;100.00;100917.56;4972385;28;20058;-77
2022/07/31 05:23:46;;;;;;;4.43;4.03;;;;;;;11.73;100.00;100913.06;4940926;28;20058;-77
2022/07/31 05:26:13;;;;;;;5.47;4.60;;;;;;;11.87;100.00;100920.75;4953589;28;20097;-77
2022/07/31 05:28:39;;;;;;;4.47;4.07;;;;;;;12.33;100.00;100928.50;4980657;28;20492;-77
2022/07/31 05:31:09;;;;;;;4.45;4.03;;;;;;;12.67;100.00;100917.09;4967104;28;20061;-75
2022/07/31 05:33:36;;;;;;;4.30;3.90;;;;;;;12.78;100.00;100915.06;4965820;28;20393;-75
2022/07/31 05:36:04;;;;;;;4.57;4.00;;;;;;;12.79;100.00;100916.81;4932276;28;20043;-76
2022/07/31 05:38:31;;;;;;;4.05;3.65;;;;;;;12.94;100.00;100912.88;4955786;28;20586;-77
2022/07/31 05:40:57;;;;;;;5.60;4.20;;;;;;;13.47;100.00;100906.16;4962041;28;20047;-77
2022/07/31 05:43:24;;;;;;;4.10;3.50;;;;;;;14.08;100.00;100914.94;4975929;28;20058;-77
2022/07/31 05:45:51;;;;;;;3.45;3.03;;;;;;;15.35;100.00;100915.16;4936084;28;20038;-77
2022/07/31 05:48:18;;;;;;;7.18;3.38;;;;;;;16.11;98.62;100914.97;4973373;28;20046;-76
2022/07/31 05:50:48;;;;;;;4.10;3.38;;;;;;;16.22;96.69;100909.22;4958307;28;20043;-77
2022/07/31 05:53:15;;;;;;;4.00;3.58;;;;;;;16.01;96.65;100905.63;4937806;28;20567;-76
2022/07/31 05:55:43;;;;;;;3.67;3.10;;;;;;;15.59;99.63;100908.94;4931282;28;20135;-77
2022/07/31 05:58:10;;;;;;;4.65;3.10;;;;;;;15.33;100.00;100909.03;4951202;28;20035;-78
2022/07/31 06:00:43;;;;;;;3.20;2.90;;;;;;;15.23;100.00;100903.19;4933354;28;20050;-77
2022/07/31 06:03:14;;;;;;;3.88;2.97;;;;;;;15.20;100.00;100901.47;4964384;28;20133;-77
2022/07/31 06:05:41;;;;;;;3.28;2.92;;;;;;;15.36;100.00;100909.78;4917642;28;20070;-77
2022/07/31 06:08:08;;;;;;;3.58;3.10;;;;;;;15.68;100.00;100907.78;4957470;28;20035;-77
2022/07/31 06:10:36;;;;;;;3.88;3.53;;;;;;;16.03;100.00;100906.41;4963877;28;20043;-75
2022/07/31 06:13:04;;;;;;;2.97;2.67;;;;;;;17.46;97.29;100896.84;4954512;28;20038;-78
2022/07/31 06:15:30;;;;;;;4.32;2.97;;;;;;;19.10;85.99;100900.53;4969266;28;20057;-79
2022/07/31 06:18:02;;;;;;;3.38;2.58;;;;;;;20.42;75.68;100904.91;4938048;28;20066;-76
2022/07/31 06:20:29;;;;;;;3.42;2.88;;;;;;;21.28;71.95;100906.16;4963597;28;20035;-76
2022/07/31 06:22:56;;;;;;;3.90;2.70;;;;;;;21.73;70.04;100915.00;4930539;28;20042;-77
2022/07/31 06:25:24;;;;;;;2.92;2.35;;;;;;;21.94;62.65;100910.94;4960290;28;20047;-78
2022/07/31 06:28:00;;;;;;;4.22;2.60;;;;;;;22.14;57.84;100915.94;4953108;28;20054;-76
2022/07/31 06:30:29;;;;;;;2.88;2.00;;;;;;;22.32;59.55;100919.25;4928355;28;20081;-77
2022/07/31 06:32:56;;;;;;;3.17;2.08;;;;;;;22.54;56.41;100912.47;4951522;28;20051;-77
2022/07/31 06:35:23;;;;;;;3.85;1.77;;;;;;;22.74;55.22;100918.25;4937130;28;20042;-78
2022/07/31 06:37:50;;;;;;;2.85;2.30;;;;;;;22.96;54.24;100915.00;4972737;28;20043;-76
2022/07/31 06:40:17;;;;;;;142.93;18.85;;;;;;;23.24;53.15;100915.81;4950449;28;20047;-77
2022/07/31 06:42:44;;;;;;;35.58;7.00;;;;;;;23.39;50.92;100914.75;4951387;28;20065;-77
2022/07/31 06:45:11;;;;;;;32.97;5.75;;;;;;;23.55;52.26;100915.41;4939159;28;20485;-76
2022/07/31 06:47:55;;;;;;;3.80;2.25;;;;;;;23.82;46.89;100919.81;4953071;28;20058;-78
2022/07/31 06:50:22;;;;;;;6.55;2.30;;;;;;;23.51;44.64;100919.25;4951836;28;20085;-78
2022/07/31 06:52:48;;;;;;;4.18;2.08;;;;;;;23.89;48.70;100920.25;4930097;28;20497;-77
2022/07/31 06:55:16;;;;;;;2.88;1.90;;;;;;;24.21;45.76;100923.28;4962800;28;20050;-77
2022/07/31 06:57:43;;;;;;;2.97;2.22;;;;;;;24.56;45.13;100921.59;4949329;28;20043;-77
2022/07/31 07:00:10;;;;;;;4.95;2.20;;;;;;;24.97;43.28;100920.28;4959087;28;20488;-75
2022/07/31 07:02:46;;;;;;;3.10;2.20;;;;;;;25.09;43.11;100911.28;4949139;28;20067;-77
2022/07/31 07:05:13;;;;;;;3.28;1.90;;;;;;;25.17;41.53;100910.69;4929370;28;20047;-76
2022/07/31 07:07:39;;;;;;;2.70;2.13;;;;;;;25.35;42.03;100908.38;4918309;28;20046;-77
2022/07/31 07:10:06;;;;;;;2.47;1.98;;;;;;;25.49;43.10;100902.75;4946286;28;20054;-76
2022/07/31 07:12:33;;;;;;;9.65;3.30;;;;;;;25.62;41.41;100902.63;4946572;28;20047;-77
2022/07/31 07:15:00;;;;;;;3.58;2.30;;;;;;;25.72;40.50;100909.91;4929332;29;20039;-77
2022/07/31 07:17:27;;;;;;;3.58;2.08;;;;;;;25.97;42.08;100899.81;4939085;28;20958;-77
2022/07/31 07:19:55;;;;;;;2.30;2.05;;;;;;;25.95;39.52;100899.94;4940473;28;20147;-75
2022/07/31 07:22:22;;;;;;;2.50;1.90;;;;;;;25.97;38.92;100891.69;4931988;28;20121;-77
2022/07/31 07:24:58;;;;;;;2.28;1.85;;;;;;;25.71;39.21;100905.50;4919426;29;20114;-76
2022/07/31 07:27:25;;;;;;;2.20;1.90;;;;;;;25.66;39.36;100902.28;4935779;28;20743;-75
2022/07/31 07:29:52;;;;;;;2.22;1.70;;;;;;;25.97;40.06;100899.81;4914941;29;20421;-76
2022/07/31 07:32:18;;;;;;;4.30;2.17;;;;;;;26.17;38.87;100901.78;4917245;28;20051;-77
2022/07/31 07:34:45;;;;;;;3.97;2.53;;;;;;;26.22;37.24;100896.81;4955476;28;20039;-77
2022/07/31 07:37:11;;;;;;;2.40;2.15;;;;;;;25.99;38.62;100895.16;4934388;29;20378;-76
2022/07/31 07:39:38;;;;;;;2.75;2.20;;;;;;;26.08;38.06;100894.41;4947889;28;20129;-76
2022/07/31 07:42:05;;;;;;;2.42;2.10;;;;;;;26.21;38.87;100896.97;4947307;28;20046;-76
2022/07/31 07:44:32;;;;;;;2.92;1.75;;;;;;;26.30;38.35;100893.50;4930922;28;20046;-77
2022/07/31 07:46:59;;;;;;;4.00;2.40;;;;;;;26.53;37.08;100884.34;4916260;29;20516;-78
2022/07/31 07:49:26;;;;;;;2.53;2.28;;;;;;;26.76;37.01;100879.72;4948152;28;20031;-77
2022/07/31 07:51:52;;;;;;;3.33;2.20;;;;;;;27.16;37.07;100873.63;4918671;29;20126;-77
2022/07/31 07:54:26;;;;;;;2.25;2.05;;;;;;;27.35;36.49;100867.44;4924553;28;20043;-77
2022/07/31 07:56:53;;;;;;;2.05;1.85;;;;;;;27.14;35.37;100862.00;4916089;29;20047;-77
2022/07/31 07:59:20;;;;;;;2.60;1.77;;;;;;;26.92;35.56;100869.28;4942927;28;20077;-76
2022/07/31 08:01:47;;;;;;;3.13;2.03;;;;;;;27.01;38.05;100856.78;4919971;29;20047;-76
2022/07/31 08:04:13;;;;;;;2.55;2.20;;;;;;;26.94;36.06;100866.44;4947695;28;20760;-78
2022/07/31 08:06:40;;;;;;;8.85;2.88;;;;;;;26.98;36.73;100864.28;5031319;23;20112;-78
2022/07/31 08:09:07;;;;;;;3.97;1.90;;;;;;;26.63;35.74;100860.91;4941479;28;20047;-78
2022/07/31 08:11:33;;;;;;;7.15;2.33;;;;;;;26.77;37.36;100862.44;4953025;28;20039;-77
2022/07/31 08:14:00;;;;;;;74.82;12.15;;;;;;;27.10;36.05;100852.44;4963749;28;20455;-77
2022/07/31 08:16:27;;;;;;;3.38;1.95;;;;;;;27.33;36.25;100856.72;4937884;28;20054;-77
2022/07/31 08:18:53;;;;;;;3.90;1.92;;;;;;;27.34;35.95;100860.28;4964817;28;20034;-77
2022/07/31 08:21:20;;;;;;;2.60;2.38;;;;;;;26.96;34.76;100860.88;4962322;28;20042;-78
2022/07/31 08:23:47;;;;;;;6.80;2.67;;;;;;;26.87;36.95;100852.53;4932007;28;20046;-77
2022/07/31 08:26:17;;;;;;;6.43;3.13;;;;;;;27.16;35.64;100855.47;4960094;28;20043;-77
2022/07/31 08:28:44;;;;;;;3.90;2.50;;;;;;;27.45;34.81;100858.34;4939215;28;20038;-78
2022/07/31 08:31:17;;;;;;;3.38;2.17;;;;;;;27.46;34.11;100853.78;4951645;28;20041;-78
2022/07/31 08:33:44;;;;;;;3.25;2.10;;;;;;;27.39;34.22;100849.88;4965457;28;20098;-77
2022/07/31 08:36:11;;;;;;;3.05;2.50;;;;;;;27.10;34.25;100842.44;4951046;28;20049;-78
2022/07/31 08:38:39;;;;;;;2.53;1.95;;;;;;;27.12;34.65;100842.31;4937153;28;20053;-78
2022/07/31 08:41:05;;;;;;;4.78;2.38;;;;;;;27.32;35.13;100844.13;4967496;28;21926;-79
2022/07/31 08:43:32;;;;;;;2.20;2.00;;;;;;;27.42;34.38;100844.19;4953818;28;20038;-78
2022/07/31 08:46:19;;;;;;;2.63;2.22;;;;;;;27.30;34.64;100840.69;4968043;28;20120;-78
2022/07/31 08:48:47;;;;;;;2.53;2.17;;;;;;;27.17;34.52;100840.06;4969958;28;20039;-77
2022/07/31 08:51:15;;;;;;;4.00;2.25;;;;;;;27.48;34.92;100846.34;4942637;28;20039;-77
2022/07/31 08:53:42;;;;;;;2.63;1.95;;;;;;;27.88;34.84;100843.69;4966325;28;20039;-77
2022/07/31 08:56:09;;;;;;;3.83;2.40;;;;;;;28.20;33.37;100843.47;4939247;28;20051;-77
2022/07/31 08:58:36;;;;;;;2.65;2.15;;;;;;;28.39;32.69;100830.94;4965793;28;20135;-78
2022/07/31 09:01:07;;;;;;;5.03;2.10;;;;;;;28.48;32.27;100836.38;4945512;28;20436;-78
2022/07/31 09:03:34;;;;;;;2.45;2.00;;;;;;;28.69;31.74;100827.22;4951996;28;20047;-78
2022/07/31 09:06:03;;;;;;;10.05;3.45;;;;;;;28.78;31.77;100829.06;4963663;28;20564;-79
2022/07/31 09:08:31;;;;;;;6.20;2.67;;;;;;;28.75;32.14;100834.78;4948831;28;20411;-79
2022/07/31 09:11:02;;;;;;;3.00;2.38;;;;;;;28.32;32.16;100839.66;4970875;28;20038;-77
2022/07/31 09:13:33;;;;;;;5.05;2.40;;;;;;;28.48;32.66;100830.06;4979288;28;20105;-77
2022/07/31 09:16:01;;;;;;;3.13;1.95;;;;;;;28.34;33.18;100828.66;4967170;28;20125;-79
2022/07/31 09:18:28;;;;;;;14.20;3.70;;;;;;;28.36;32.99;100829.38;4967018;28;20046;-80
2022/07/31 09:21:00;;;;;;;8.90;2.95;;;;;;;28.90;32.90;100825.22;4984560;28;20931;-78
2022/07/31 09:23:28;;;;;;;3.70;2.95;;;;;;;29.37;31.89;100825.25;4965495;28;20057;-79
2022/07/31 09:26:03;;;;;;;7.30;2.97;;;;;;;29.77;31.49;100821.38;4965286;28;20073;-79
2022/07/31 09:28:38;;;;;;;3.97;2.40;;;;;;;30.22;30.75;100816.81;4956896;28;20058;-78
2022/07/31 09:31:06;;;;;;;2.85;2.10;;;;;;;30.38;29.88;100815.25;4948400;28;20503;-77
2022/07/31 09:33:35;;;;;;;2.50;2.03;;;;;;;29.86;29.80;100812.28;4950824;28;20415;-77
2022/07/31 09:36:03;;;;;;;3.25;2.60;;;;;;;30.03;30.33;100814.19;4968091;28;20046;-78
2022/07/31 09:38:42;;;;;;;3.17;2.30;;;;;;;29.61;30.31;100803.81;4951860;28;20034;-78
2022/07/31 09:41:14;;;;;;;2.63;2.20;;;;;;;29.91;30.59;100805.34;4986011;28;20069;-78
2022/07/31 09:44:03;;;;;;;3.67;2.40;;;;;;;29.19;31.62;100799.81;4964418;28;20427;-79
2022/07/31 09:46:40;;;;;;;3.15;2.28;;;;;;;29.78;31.71;100795.88;4964168;28;20078;-78
2022/07/31 09:49:07;;;;;;;2.47;2.10;;;;;;;29.78;30.06;100802.16;4981158;28;20437;-79
2022/07/31 09:51:44;;;;;;;2.60;1.98;;;;;;;30.17;30.85;100793.75;4982015;28;20096;-78
2022/07/31 09:54:28;;;;;;;123.18;20.70;;;;;;;30.48;30.00;100795.06;4981070;28;20686;-77
2022/07/31 09:56:56;;;;;;;4.35;2.17;;;;;;;29.93;29.48;100788.84;4967526;28;20046;-77
2022/07/31 09:59:23;;;;;;;3.58;2.22;;;;;;;30.49;29.92;100788.59;4952564;28;20051;-77
2022/07/31 10:01:51;;;;;;;5.15;2.47;;;;;;;30.82;28.65;100778.84;4947549;28;20038;-79
2022/07/31 10:04:19;;;;;;;3.72;2.25;;;;;;;30.64;28.96;100783.44;4980138;28;20045;-78
2022/07/31 10:06:47;;;;;;;4.68;2.40;;;;;;;30.54;28.77;100786.28;4992229;28;20041;-77
2022/07/31 10:09:14;;;;;;;2.83;2.50;;;;;;;30.81;29.09;100779.88;4961269;28;20100;-78
2022/07/31 10:11:41;;;;;;;3.90;2.30;;;;;;;30.44;29.03;100779.22;4944925;28;20134;-78
2022/07/31 10:14:14;;;;;;;4.60;2.40;;;;;;;29.94;28.89;100775.13;4968059;28;20077;-78
2022/07/31 10:16:42;;;;;;;4.30;2.40;;;;;;;30.10;29.93;100776.28;4978136;28;20041;-78
2022/07/31 10:19:11;;;;;;;22.80;15.57;;;;;;;29.96;30.56;100772.22;4983720;28;20403;-78
2022/07/31 10:21:43;;;;;;;3.83;2.83;;;;;;;29.76;30.37;100774.19;4984976;28;20049;-79
2022/07/31 10:24:11;;;;;;;2.80;2.42;;;;;;;29.95;29.62;100770.50;4969345;28;20035;-78
2022/07/31 10:26:38;;;;;;;3.83;2.78;;;;;;;30.08;29.76;100761.97;4986244;28;20054;-78
2022/07/31 10:29:25;;;;;;;2.85;2.35;;;;;;;30.54;29.47;100755.44;4950102;28;20051;-78
2022/07/31 10:31:57;;;;;;;4.22;3.67;;;;;;;30.15;30.33;100761.22;4970433;28;20089;-79
2022/07/31 10:34:25;;;;;;;3.55;3.20;;;;;;;30.58;30.13;100759.53;4970944;28;20442;-78
2022/07/31 10:36:53;;;;;;;5.05;3.30;;;;;;;30.47;30.33;100760.66;4954477;28;20046;-78
2022/07/31 10:39:28;;;;;;;3.65;2.92;;;;;;;29.35;30.41;100756.50;4949088;28;20054;-78
2022/07/31 10:42:07;;;;;;;11.55;3.65;;;;;;;29.37;31.67;100760.78;4972343;28;20099;-78
2022/07/31 10:44:50;;;;;;;4.80;3.03;;;;;;;29.65;30.26;100752.63;4948898;28;20049;-76
2022/07/31 10:47:17;;;;;;;3.88;3.28;;;;;;;29.93;30.03;100750.72;4986820;28;20053;-77
2022/07/31 10:49:47;;;;;;;2.88;2.22;;;;;;;30.07;29.91;100755.66;4967284;28;20042;-77
2022/07/31 10:52:31;;;;;;;2.40;2.20;;;;;;;30.23;29.57;100753.13;4968328;28;20034;-77
2022/07/31 10:55:00;;;;;;;6.05;2.90;;;;;;;30.54;28.71;100739.06;4964845;28;20049;-77
2022/07/31 10:57:32;;;;;;;2.95;2.47;;;;;;;30.22;29.20;100751.41;4965440;28;20042;-78
2022/07/31 11:00:10;;;;;;;3.97;2.33;;;;;;;30.61;30.11;100748.34;4982139;28;20038;-77
2022/07/31 11:02:44;;;;;;;2.97;2.38;;;;;;;30.88;29.62;100744.63;4978997;28;20036;-78
2022/07/31 11:05:14;;;;;;;39.10;6.97;;;;;;;31.13;29.21;100734.72;4950521;28;20520;-77
2022/07/31 11:07:44;;;;;;;3.17;2.88;;;;;;;30.86;28.86;100741.22;4957336;28;20046;-79
2022/07/31 11:10:13;;;;;;;3.65;2.45;;;;;;;31.32;29.52;100739.94;4942792;28;20050;-79
2022/07/31 11:12:40;;;;;;;2.50;2.30;;;;;;;31.66;29.22;100737.16;4946601;28;20050;-78
2022/07/31 11:15:22;;;;;;;2.40;2.20;;;;;;;31.86;28.09;100732.28;4944538;28;20043;-77
2022/07/31 11:17:49;;;;;;;4.38;2.40;;;;;;;32.19;28.41;100735.91;4945379;28;20039;-77
2022/07/31 11:20:36;;;;;;;3.03;2.60;;;;;;;32.17;26.57;100739.84;4962375;28;20043;-77
2022/07/31 11:23:05;;;;;;;7.90;2.50;;;;;;;31.96;27.30;100736.78;4943008;28;20599;-77
2022/07/31 11:25:34;;;;;;;4.68;2.83;;;;;;;31.35;28.03;100731.41;4947141;28;20035;-77
2022/07/31 11:28:23;;;;;;;2.92;2.13;;;;;;;31.65;28.12;100727.25;4950625;28;20041;-76
2022/07/31 11:30:54;;;;;;;2.83;2.42;;;;;;;31.36;27.65;100727.69;4961769;28;20059;-77
2022/07/31 11:33:34;;;;;;;4.78;2.70;;;;;;;31.06;28.24;100728.19;4963877;28;20187;-77
2022/07/31 11:36:24;;;;;;;2.88;2.65;;;;;;;30.45;28.77;100715.47;4965069;28;20126;-78